sensor_id;sensor_type;location;lat;lon;timestamp;temperature;humidity
64833;HTU21D;51290;45.060;38.948;2022-12-22T00:01:39;4.12;73.52
64833;HTU21D;51290;45.060;38.948;2022-12-22T00:04:24;4.13;73.50
64833;HTU21D;51290;45.060;38.948;2022-12-22T00:07:08;4.13;73.46
64833;HTU21D;51290;45.060;38.948;2022-12-22T00:09:53;4.10;73.44
64833;HTU21D;51290;45.060;38.948;2022-12-22T00:12:37;4.08;73.44
64833;HTU21D;51290;45.060;38.948;2022-12-22T00:15:22;4.04;73.41
64833;HTU21D;51290;45.060;38.948;2022-12-22T00:18:13;3.99;73.40
64833;HTU21D;51290;45.060;38.948;2022-12-22T00:20:58;3.91;73.35
64833;HTU21D;51290;45.060;38.948;2022-12-22T00:23:42;3.82;73.44
64833;HTU21D;51290;45.060;38.948;2022-12-22T00:26:28;3.73;73.51
64833;HTU21D;51290;45.060;38.948;2022-12-22T00:29:14;3.65;73.55
64833;HTU21D;51290;45.060;38.948;2022-12-22T00:32:00;3.58;73.65
64833;HTU21D;51290;45.060;38.948;2022-12-22T00:34:44;3.50;73.72
64833;HTU21D;51290;45.060;38.948;2022-12-22T00:37:32;3.42;73.77
64833;HTU21D;51290;45.060;38.948;2022-12-22T00:40:19;3.35;73.88
64833;HTU21D;51290;45.060;38.948;2022-12-22T00:43:04;3.29;73.93
64833;HTU21D;51290;45.060;38.948;2022-12-22T00:45:49;3.23;73.98
64833;HTU21D;51290;45.060;38.948;2022-12-22T00:48:34;3.17;74.02
64833;HTU21D;51290;45.060;38.948;2022-12-22T00:51:19;3.13;74.06
64833;HTU21D;51290;45.060;38.948;2022-12-22T00:54:08;3.06;74.09
64833;HTU21D;51290;45.060;38.948;2022-12-22T00:56:53;3.01;74.09
64833;HTU21D;51290;45.060;38.948;2022-12-22T00:59:37;2.98;74.11
64833;HTU21D;51290;45.060;38.948;2022-12-22T01:02:22;2.93;74.12
64833;HTU21D;51290;45.060;38.948;2022-12-22T01:05:06;2.86;74.14
64833;HTU21D;51290;45.060;38.948;2022-12-22T01:07:51;2.82;74.19
64833;HTU21D;51290;45.060;38.948;2022-12-22T01:10:36;2.76;74.20
64833;HTU21D;51290;45.060;38.948;2022-12-22T01:13:20;2.73;74.21
64833;HTU21D;51290;45.060;38.948;2022-12-22T01:16:07;2.68;74.24
64833;HTU21D;51290;45.060;38.948;2022-12-22T01:18:52;2.62;74.27
64833;HTU21D;51290;45.060;38.948;2022-12-22T01:21:36;2.58;74.33
64833;HTU21D;51290;45.060;38.948;2022-12-22T01:24:20;2.55;74.38
64833;HTU21D;51290;45.060;38.948;2022-12-22T01:27:08;2.52;74.43
64833;HTU21D;51290;45.060;38.948;2022-12-22T01:29:52;2.50;74.44
64833;HTU21D;51290;45.060;38.948;2022-12-22T01:32:36;2.47;74.44
64833;HTU21D;51290;45.060;38.948;2022-12-22T01:35:23;2.44;74.42
64833;HTU21D;51290;45.060;38.948;2022-12-22T01:38:08;2.41;74.46
64833;HTU21D;51290;45.060;38.948;2022-12-22T01:40:54;2.37;74.48
64833;HTU21D;51290;45.060;38.948;2022-12-22T01:43:39;2.35;74.50
64833;HTU21D;51290;45.060;38.948;2022-12-22T01:46:36;2.30;74.52
64833;HTU21D;51290;45.060;38.948;2022-12-22T01:49:28;2.29;74.55
64833;HTU21D;51290;45.060;38.948;2022-12-22T01:52:16;2.27;74.60
64833;HTU21D;51290;45.060;38.948;2022-12-22T01:55:05;2.27;74.64
64833;HTU21D;51290;45.060;38.948;2022-12-22T01:57:51;2.26;74.68
64833;HTU21D;51290;45.060;38.948;2022-12-22T02:00:35;2.26;74.69
64833;HTU21D;51290;45.060;38.948;2022-12-22T02:03:21;2.25;74.68
64833;HTU21D;51290;45.060;38.948;2022-12-22T02:12:25;2.21;74.54
64833;HTU21D;51290;45.060;38.948;2022-12-22T02:18:41;2.12;74.56
64833;HTU21D;51290;45.060;38.948;2022-12-22T02:21:33;2.10;74.59
64833;HTU21D;51290;45.060;38.948;2022-12-22T02:27:05;2.05;74.67
64833;HTU21D;51290;45.060;38.948;2022-12-22T02:29:54;2.01;74.67
64833;HTU21D;51290;45.060;38.948;2022-12-22T02:32:42;1.98;74.71
64833;HTU21D;51290;45.060;38.948;2022-12-22T02:35:34;1.97;74.72
64833;HTU21D;51290;45.060;38.948;2022-12-22T02:38:30;1.94;74.70
64833;HTU21D;51290;45.060;38.948;2022-12-22T02:44:14;1.87;74.70
64833;HTU21D;51290;45.060;38.948;2022-12-22T02:47:18;1.85;74.74
64833;HTU21D;51290;45.060;38.948;2022-12-22T02:50:28;1.81;74.74
64833;HTU21D;51290;45.060;38.948;2022-12-22T02:53:16;1.79;74.76
64833;HTU21D;51290;45.060;38.948;2022-12-22T02:56:05;1.75;74.80
64833;HTU21D;51290;45.060;38.948;2022-12-22T02:58:49;1.71;74.79
64833;HTU21D;51290;45.060;38.948;2022-12-22T03:01:34;1.68;74.83
64833;HTU21D;51290;45.060;38.948;2022-12-22T03:04:19;1.65;74.83
64833;HTU21D;51290;45.060;38.948;2022-12-22T03:07:03;1.63;74.83
64833;HTU21D;51290;45.060;38.948;2022-12-22T03:09:47;1.58;74.87
64833;HTU21D;51290;45.060;38.948;2022-12-22T03:12:32;1.54;74.86
64833;HTU21D;51290;45.060;38.948;2022-12-22T03:15:16;1.53;74.90
64833;HTU21D;51290;45.060;38.948;2022-12-22T03:18:03;1.51;74.92
64833;HTU21D;51290;45.060;38.948;2022-12-22T03:20:48;1.48;74.93
64833;HTU21D;51290;45.060;38.948;2022-12-22T03:23:32;1.45;74.94
64833;HTU21D;51290;45.060;38.948;2022-12-22T03:26:16;1.42;74.96
64833;HTU21D;51290;45.060;38.948;2022-12-22T03:28:44;1.41;74.99
64833;HTU21D;51290;45.060;38.948;2022-12-22T03:31:10;1.40;75.04
64833;HTU21D;51290;45.060;38.948;2022-12-22T03:33:36;1.38;75.09
64833;HTU21D;51290;45.060;38.948;2022-12-22T03:36:03;1.38;75.12
64833;HTU21D;51290;45.060;38.948;2022-12-22T03:38:29;1.38;75.13
64833;HTU21D;51290;45.060;38.948;2022-12-22T03:40:55;1.37;75.18
64833;HTU21D;51290;45.060;38.948;2022-12-22T03:43:21;1.37;75.20
64833;HTU21D;51290;45.060;38.948;2022-12-22T03:46:08;1.39;75.24
64833;HTU21D;51290;45.060;38.948;2022-12-22T03:48:53;1.38;75.25
64833;HTU21D;51290;45.060;38.948;2022-12-22T03:51:42;1.41;75.27
64833;HTU21D;51290;45.060;38.948;2022-12-22T03:54:11;1.42;75.30
64833;HTU21D;51290;45.060;38.948;2022-12-22T03:56:37;1.42;75.30
64833;HTU21D;51290;45.060;38.948;2022-12-22T03:59:04;1.45;75.28
64833;HTU21D;51290;45.060;38.948;2022-12-22T04:01:32;1.47;75.30
64833;HTU21D;51290;45.060;38.948;2022-12-22T04:03:58;1.48;75.30
64833;HTU21D;51290;45.060;38.948;2022-12-22T04:06:24;1.49;75.33
64833;HTU21D;51290;45.060;38.948;2022-12-22T04:08:50;1.51;75.34
64833;HTU21D;51290;45.060;38.948;2022-12-22T04:11:17;1.53;75.35
64833;HTU21D;51290;45.060;38.948;2022-12-22T04:14:02;1.56;75.33
64833;HTU21D;51290;45.060;38.948;2022-12-22T04:16:28;1.57;75.31
64833;HTU21D;51290;45.060;38.948;2022-12-22T04:18:54;1.58;75.29
64833;HTU21D;51290;45.060;38.948;2022-12-22T04:21:20;1.58;75.29
64833;HTU21D;51290;45.060;38.948;2022-12-22T04:23:46;1.58;75.28
64833;HTU21D;51290;45.060;38.948;2022-12-22T04:26:17;1.57;75.32
64833;HTU21D;51290;45.060;38.948;2022-12-22T04:28:43;1.57;75.34
64833;HTU21D;51290;45.060;38.948;2022-12-22T04:31:09;1.58;75.37
64833;HTU21D;51290;45.060;38.948;2022-12-22T04:33:35;1.57;75.39
64833;HTU21D;51290;45.060;38.948;2022-12-22T04:36:01;1.58;75.42
64833;HTU21D;51290;45.060;38.948;2022-12-22T04:38:27;1.60;75.45
64833;HTU21D;51290;45.060;38.948;2022-12-22T04:40:53;1.60;75.50
64833;HTU21D;51290;45.060;38.948;2022-12-22T04:43:19;1.62;75.50
64833;HTU21D;51290;45.060;38.948;2022-12-22T04:45:45;1.63;75.52
64833;HTU21D;51290;45.060;38.948;2022-12-22T04:48:11;1.63;75.53
64833;HTU21D;51290;45.060;38.948;2022-12-22T04:50:37;1.64;75.54
64833;HTU21D;51290;45.060;38.948;2022-12-22T04:53:03;1.65;75.53
64833;HTU21D;51290;45.060;38.948;2022-12-22T04:55:29;1.67;75.54
64833;HTU21D;51290;45.060;38.948;2022-12-22T04:57:55;1.67;75.56
64833;HTU21D;51290;45.060;38.948;2022-12-22T05:00:21;1.70;75.59
64833;HTU21D;51290;45.060;38.948;2022-12-22T05:02:47;1.71;75.60
64833;HTU21D;51290;45.060;38.948;2022-12-22T05:05:13;1.73;75.60
64833;HTU21D;51290;45.060;38.948;2022-12-22T05:07:39;1.76;75.62
64833;HTU21D;51290;45.060;38.948;2022-12-22T05:10:05;1.77;75.61
64833;HTU21D;51290;45.060;38.948;2022-12-22T05:12:31;1.78;75.59
64833;HTU21D;51290;45.060;38.948;2022-12-22T05:15:15;1.80;75.55
64833;HTU21D;51290;45.060;38.948;2022-12-22T05:17:41;1.79;75.57
64833;HTU21D;51290;45.060;38.948;2022-12-22T05:20:08;1.80;75.57
64833;HTU21D;51290;45.060;38.948;2022-12-22T05:22:34;1.80;75.63
64833;HTU21D;51290;45.060;38.948;2022-12-22T05:25:00;1.81;75.66
64833;HTU21D;51290;45.060;38.948;2022-12-22T05:27:26;1.82;75.68
64833;HTU21D;51290;45.060;38.948;2022-12-22T05:29:52;1.85;75.70
64833;HTU21D;51290;45.060;38.948;2022-12-22T05:32:18;1.86;75.73
64833;HTU21D;51290;45.060;38.948;2022-12-22T05:34:45;1.87;75.75
64833;HTU21D;51290;45.060;38.948;2022-12-22T05:37:11;1.91;75.79
64833;HTU21D;51290;45.060;38.948;2022-12-22T05:39:37;1.93;75.82
64833;HTU21D;51290;45.060;38.948;2022-12-22T05:42:03;1.96;75.83
64833;HTU21D;51290;45.060;38.948;2022-12-22T05:44:29;1.99;75.86
64833;HTU21D;51290;45.060;38.948;2022-12-22T05:46:55;2.03;75.86
64833;HTU21D;51290;45.060;38.948;2022-12-22T05:49:21;2.06;75.86
64833;HTU21D;51290;45.060;38.948;2022-12-22T05:51:47;2.09;75.90
64833;HTU21D;51290;45.060;38.948;2022-12-22T05:54:13;2.13;75.90
64833;HTU21D;51290;45.060;38.948;2022-12-22T05:56:39;2.16;75.92
64833;HTU21D;51290;45.060;38.948;2022-12-22T05:59:05;2.21;75.95
64833;HTU21D;51290;45.060;38.948;2022-12-22T06:01:31;2.24;75.95
64833;HTU21D;51290;45.060;38.948;2022-12-22T06:03:57;2.27;75.95
64833;HTU21D;51290;45.060;38.948;2022-12-22T06:06:23;2.31;76.01
64833;HTU21D;51290;45.060;38.948;2022-12-22T06:08:49;2.36;76.10
64833;HTU21D;51290;45.060;38.948;2022-12-22T06:11:15;2.40;76.15
64833;HTU21D;51290;45.060;38.948;2022-12-22T06:13:44;2.46;76.22
64833;HTU21D;51290;45.060;38.948;2022-12-22T06:16:10;2.53;76.26
64833;HTU21D;51290;45.060;38.948;2022-12-22T06:18:36;2.59;76.29
64833;HTU21D;51290;45.060;38.948;2022-12-22T06:21:02;2.67;76.29
64833;HTU21D;51290;45.060;38.948;2022-12-22T06:23:28;2.73;76.34
64833;HTU21D;51290;45.060;38.948;2022-12-22T06:26:00;2.82;76.37
64833;HTU21D;51290;45.060;38.948;2022-12-22T06:28:27;2.89;76.41
64833;HTU21D;51290;45.060;38.948;2022-12-22T06:30:54;2.98;76.47
64833;HTU21D;51290;45.060;38.948;2022-12-22T06:33:21;3.06;76.50
64833;HTU21D;51290;45.060;38.948;2022-12-22T06:35:47;3.17;76.53
64833;HTU21D;51290;45.060;38.948;2022-12-22T06:38:13;3.27;76.56
64833;HTU21D;51290;45.060;38.948;2022-12-22T06:40:39;3.38;76.53
64833;HTU21D;51290;45.060;38.948;2022-12-22T06:43:05;3.48;76.52
64833;HTU21D;51290;45.060;38.948;2022-12-22T06:45:41;3.58;76.45
64833;HTU21D;51290;45.060;38.948;2022-12-22T06:48:09;3.68;76.41
64833;HTU21D;51290;45.060;38.948;2022-12-22T06:50:35;3.74;76.42
64833;HTU21D;51290;45.060;38.948;2022-12-22T06:53:02;3.82;76.39
64833;HTU21D;51290;45.060;38.948;2022-12-22T06:55:28;3.91;76.41
64833;HTU21D;51290;45.060;38.948;2022-12-22T06:57:54;3.99;76.42
64833;HTU21D;51290;45.060;38.948;2022-12-22T07:00:21;4.07;76.43
64833;HTU21D;51290;45.060;38.948;2022-12-22T07:02:47;4.15;76.46
64833;HTU21D;51290;45.060;38.948;2022-12-22T07:05:13;4.24;76.44
64833;HTU21D;51290;45.060;38.948;2022-12-22T07:07:40;4.33;76.41
64833;HTU21D;51290;45.060;38.948;2022-12-22T07:10:06;4.42;76.40
64833;HTU21D;51290;45.060;38.948;2022-12-22T07:12:32;4.50;76.37
64833;HTU21D;51290;45.060;38.948;2022-12-22T07:14:58;4.60;76.30
64833;HTU21D;51290;45.060;38.948;2022-12-22T07:17:24;4.69;76.28
64833;HTU21D;51290;45.060;38.948;2022-12-22T07:19:50;4.76;76.25
64833;HTU21D;51290;45.060;38.948;2022-12-22T07:22:16;4.87;76.26
64833;HTU21D;51290;45.060;38.948;2022-12-22T07:24:42;4.94;76.24
64833;HTU21D;51290;45.060;38.948;2022-12-22T07:27:08;5.03;76.18
64833;HTU21D;51290;45.060;38.948;2022-12-22T07:29:34;5.10;76.15
64833;HTU21D;51290;45.060;38.948;2022-12-22T07:32:02;5.21;76.12
64833;HTU21D;51290;45.060;38.948;2022-12-22T07:34:28;5.30;76.09
64833;HTU21D;51290;45.060;38.948;2022-12-22T07:36:54;5.37;76.10
64833;HTU21D;51290;45.060;38.948;2022-12-22T07:39:20;5.48;76.09
64833;HTU21D;51290;45.060;38.948;2022-12-22T07:41:45;5.57;76.07
64833;HTU21D;51290;45.060;38.948;2022-12-22T07:44:30;5.68;75.99
64833;HTU21D;51290;45.060;38.948;2022-12-22T07:46:56;5.77;75.95
64833;HTU21D;51290;45.060;38.948;2022-12-22T07:49:22;5.87;75.93
64833;HTU21D;51290;45.060;38.948;2022-12-22T07:52:06;5.98;75.89
64833;HTU21D;51290;45.060;38.948;2022-12-22T07:54:33;6.08;75.84
64833;HTU21D;51290;45.060;38.948;2022-12-22T07:56:59;6.17;75.77
64833;HTU21D;51290;45.060;38.948;2022-12-22T07:59:25;6.25;75.73
64833;HTU21D;51290;45.060;38.948;2022-12-22T08:01:51;6.35;75.70
64833;HTU21D;51290;45.060;38.948;2022-12-22T08:04:17;6.42;75.62
64833;HTU21D;51290;45.060;38.948;2022-12-22T08:06:44;6.51;75.54
64833;HTU21D;51290;45.060;38.948;2022-12-22T08:09:13;6.56;75.47
64833;HTU21D;51290;45.060;38.948;2022-12-22T08:11:40;6.64;75.44
64833;HTU21D;51290;45.060;38.948;2022-12-22T08:14:06;6.71;75.41
64833;HTU21D;51290;45.060;38.948;2022-12-22T08:16:32;6.78;75.41
64833;HTU21D;51290;45.060;38.948;2022-12-22T08:18:58;6.86;75.37
64833;HTU21D;51290;45.060;38.948;2022-12-22T08:21:24;6.94;75.30
64833;HTU21D;51290;45.060;38.948;2022-12-22T08:23:50;7.00;75.25
64833;HTU21D;51290;45.060;38.948;2022-12-22T08:26:39;7.07;75.16
64833;HTU21D;51290;45.060;38.948;2022-12-22T08:29:13;7.14;75.14
64833;HTU21D;51290;45.060;38.948;2022-12-22T08:31:41;7.22;75.10
64833;HTU21D;51290;45.060;38.948;2022-12-22T08:34:09;7.28;75.04
64833;HTU21D;51290;45.060;38.948;2022-12-22T08:36:40;7.35;75.00
64833;HTU21D;51290;45.060;38.948;2022-12-22T08:39:07;7.42;74.92
64833;HTU21D;51290;45.060;38.948;2022-12-22T08:41:33;7.47;74.86
64833;HTU21D;51290;45.060;38.948;2022-12-22T08:44:30;7.56;74.80
64833;HTU21D;51290;45.060;38.948;2022-12-22T08:46:57;7.61;74.75
64833;HTU21D;51290;45.060;38.948;2022-12-22T08:49:25;7.67;74.67
64833;HTU21D;51290;45.060;38.948;2022-12-22T08:51:51;7.71;74.61
64833;HTU21D;51290;45.060;38.948;2022-12-22T08:54:18;7.77;74.54
64833;HTU21D;51290;45.060;38.948;2022-12-22T08:56:44;7.82;74.50
64833;HTU21D;51290;45.060;38.948;2022-12-22T08:59:11;7.86;74.39
64833;HTU21D;51290;45.060;38.948;2022-12-22T09:01:40;7.88;74.30
64833;HTU21D;51290;45.060;38.948;2022-12-22T09:04:13;7.90;74.28
64833;HTU21D;51290;45.060;38.948;2022-12-22T09:06:39;7.93;74.19
64833;HTU21D;51290;45.060;38.948;2022-12-22T09:09:06;7.96;74.14
64833;HTU21D;51290;45.060;38.948;2022-12-22T09:11:32;8.00;74.11
64833;HTU21D;51290;45.060;38.948;2022-12-22T09:14:00;8.03;74.08
64833;HTU21D;51290;45.060;38.948;2022-12-22T09:16:28;8.07;74.05
64833;HTU21D;51290;45.060;38.948;2022-12-22T09:18:55;8.11;74.00
64833;HTU21D;51290;45.060;38.948;2022-12-22T09:21:22;8.14;73.99
64833;HTU21D;51290;45.060;38.948;2022-12-22T09:23:48;8.18;73.96
64833;HTU21D;51290;45.060;38.948;2022-12-22T09:26:16;8.23;73.91
64833;HTU21D;51290;45.060;38.948;2022-12-22T09:28:43;8.27;73.83
64833;HTU21D;51290;45.060;38.948;2022-12-22T09:31:09;8.30;73.78
64833;HTU21D;51290;45.060;38.948;2022-12-22T09:33:36;8.33;73.72
64833;HTU21D;51290;45.060;38.948;2022-12-22T09:36:07;8.34;73.67
64833;HTU21D;51290;45.060;38.948;2022-12-22T09:38:38;8.37;73.62
64833;HTU21D;51290;45.060;38.948;2022-12-22T09:43:48;8.44;73.58
64833;HTU21D;51290;45.060;38.948;2022-12-22T09:46:21;8.48;73.56
64833;HTU21D;51290;45.060;38.948;2022-12-22T09:48:48;8.51;73.55
64833;HTU21D;51290;45.060;38.948;2022-12-22T09:51:15;8.57;73.52
64833;HTU21D;51290;45.060;38.948;2022-12-22T09:53:44;8.61;73.45
64833;HTU21D;51290;45.060;38.948;2022-12-22T09:56:15;8.64;73.43
64833;HTU21D;51290;45.060;38.948;2022-12-22T09:58:42;8.67;73.38
64833;HTU21D;51290;45.060;38.948;2022-12-22T10:06:19;8.75;73.09
64833;HTU21D;51290;45.060;38.948;2022-12-22T10:08:45;8.75;73.05
64833;HTU21D;51290;45.060;38.948;2022-12-22T10:11:16;8.78;73.00
64833;HTU21D;51290;45.060;38.948;2022-12-22T10:13:44;8.79;72.96
64833;HTU21D;51290;45.060;38.948;2022-12-22T10:18:55;8.80;72.88
64833;HTU21D;51290;45.060;38.948;2022-12-22T10:21:22;8.81;72.88
64833;HTU21D;51290;45.060;38.948;2022-12-22T10:23:48;8.83;72.83
64833;HTU21D;51290;45.060;38.948;2022-12-22T10:26:23;8.85;72.80
64833;HTU21D;51290;45.060;38.948;2022-12-22T10:31:25;8.91;72.73
64833;HTU21D;51290;45.060;38.948;2022-12-22T10:33:53;8.92;72.64
64833;HTU21D;51290;45.060;38.948;2022-12-22T10:36:26;8.94;72.62
64833;HTU21D;51290;45.060;38.948;2022-12-22T10:39:02;8.98;72.52
64833;HTU21D;51290;45.060;38.948;2022-12-22T10:41:40;9.00;72.48
64833;HTU21D;51290;45.060;38.948;2022-12-22T10:44:10;9.02;72.41
64833;HTU21D;51290;45.060;38.948;2022-12-22T10:46:48;9.03;72.38
64833;HTU21D;51290;45.060;38.948;2022-12-22T10:49:24;9.03;72.35
64833;HTU21D;51290;45.060;38.948;2022-12-22T10:51:56;9.06;72.35
64833;HTU21D;51290;45.060;38.948;2022-12-22T10:54:34;9.08;72.31
64833;HTU21D;51290;45.060;38.948;2022-12-22T10:59:58;9.11;72.20
64833;HTU21D;51290;45.060;38.948;2022-12-22T11:02:31;9.14;72.16
64833;HTU21D;51290;45.060;38.948;2022-12-22T11:05:11;9.15;72.13
64833;HTU21D;51290;45.060;38.948;2022-12-22T11:07:44;9.17;72.08
64833;HTU21D;51290;45.060;38.948;2022-12-22T11:10:35;9.18;72.03
64833;HTU21D;51290;45.060;38.948;2022-12-22T11:21:10;9.32;71.96
64833;HTU21D;51290;45.060;38.948;2022-12-22T11:23:50;9.34;71.87
64833;HTU21D;51290;45.060;38.948;2022-12-22T11:40:20;9.49;71.61
64833;HTU21D;51290;45.060;38.948;2022-12-22T11:56:55;9.64;71.20
64833;HTU21D;51290;45.060;38.948;2022-12-22T12:00:01;9.65;71.14
64833;HTU21D;51290;45.060;38.948;2022-12-22T12:03:09;9.65;71.06
64833;HTU21D;51290;45.060;38.948;2022-12-22T12:06:11;9.64;70.97
64833;HTU21D;51290;45.060;38.948;2022-12-22T12:08:56;9.61;70.93
64833;HTU21D;51290;45.060;38.948;2022-12-22T12:17:14;9.61;70.94
64833;HTU21D;51290;45.060;38.948;2022-12-22T12:19:59;9.65;70.90
64833;HTU21D;51290;45.060;38.948;2022-12-22T12:25:00;9.69;70.48
64833;HTU21D;51290;45.060;38.948;2022-12-22T12:27:45;9.67;70.37
64833;HTU21D;51290;45.060;38.948;2022-12-22T12:30:19;9.66;70.39
64833;HTU21D;51290;45.060;38.948;2022-12-22T12:33:00;9.67;70.38
64833;HTU21D;51290;45.060;38.948;2022-12-22T12:38:28;9.66;70.23
64833;HTU21D;51290;45.060;38.948;2022-12-22T12:43:22;9.67;69.93
64833;HTU21D;51290;45.060;38.948;2022-12-22T12:45:48;9.65;69.87
64833;HTU21D;51290;45.060;38.948;2022-12-22T12:50:56;9.63;69.73
64833;HTU21D;51290;45.060;38.948;2022-12-22T12:53:26;9.64;69.61
64833;HTU21D;51290;45.060;38.948;2022-12-22T12:55:55;9.62;69.50
64833;HTU21D;51290;45.060;38.948;2022-12-22T13:03:44;9.49;69.36
64833;HTU21D;51290;45.060;38.948;2022-12-22T13:09:26;9.41;69.45
64833;HTU21D;51290;45.060;38.948;2022-12-22T13:11:53;9.40;69.37
64833;HTU21D;51290;45.060;38.948;2022-12-22T13:14:55;9.38;69.22
64833;HTU21D;51290;45.060;38.948;2022-12-22T13:17:48;9.34;69.11
64833;HTU21D;51290;45.060;38.948;2022-12-22T13:20:19;9.29;69.03
64833;HTU21D;51290;45.060;38.948;2022-12-22T13:22:51;9.22;69.12
64833;HTU21D;51290;45.060;38.948;2022-12-22T13:25:18;9.19;69.23
64833;HTU21D;51290;45.060;38.948;2022-12-22T13:27:44;9.16;69.16
64833;HTU21D;51290;45.060;38.948;2022-12-22T13:30:16;9.11;69.17
64833;HTU21D;51290;45.060;38.948;2022-12-22T13:32:44;9.05;69.14
64833;HTU21D;51290;45.060;38.948;2022-12-22T13:35:40;9.02;69.25
64833;HTU21D;51290;45.060;38.948;2022-12-22T13:38:29;8.98;69.26
64833;HTU21D;51290;45.060;38.948;2022-12-22T13:40:56;8.93;69.30
64833;HTU21D;51290;45.060;38.948;2022-12-22T13:43:26;8.91;69.33
64833;HTU21D;51290;45.060;38.948;2022-12-22T13:45:55;8.87;69.29
64833;HTU21D;51290;45.060;38.948;2022-12-22T13:48:42;8.82;69.29
64833;HTU21D;51290;45.060;38.948;2022-12-22T13:51:24;8.79;69.34
64833;HTU21D;51290;45.060;38.948;2022-12-22T13:53:55;8.74;69.29
64833;HTU21D;51290;45.060;38.948;2022-12-22T13:56:33;8.70;69.36
64833;HTU21D;51290;45.060;38.948;2022-12-22T13:59:01;8.65;69.36
64833;HTU21D;51290;45.060;38.948;2022-12-22T14:01:28;8.61;69.35
64833;HTU21D;51290;45.060;38.948;2022-12-22T14:03:57;8.55;69.33
64833;HTU21D;51290;45.060;38.948;2022-12-22T14:06:37;8.50;69.37
64833;HTU21D;51290;45.060;38.948;2022-12-22T14:09:24;8.45;69.51
64833;HTU21D;51290;45.060;38.948;2022-12-22T14:14:30;8.42;69.55
64833;HTU21D;51290;45.060;38.948;2022-12-22T14:17:00;8.41;69.59
64833;HTU21D;51290;45.060;38.948;2022-12-22T14:19:32;8.41;69.55
64833;HTU21D;51290;45.060;38.948;2022-12-22T14:22:17;8.42;69.60
64833;HTU21D;51290;45.060;38.948;2022-12-22T14:24:50;8.42;69.55
64833;HTU21D;51290;45.060;38.948;2022-12-22T14:27:41;8.44;69.51
64833;HTU21D;51290;45.060;38.948;2022-12-22T14:30:33;8.43;69.41
64833;HTU21D;51290;45.060;38.948;2022-12-22T14:35:51;8.37;69.47
64833;HTU21D;51290;45.060;38.948;2022-12-22T14:38:28;8.36;69.49
64833;HTU21D;51290;45.060;38.948;2022-12-22T14:40:54;8.33;69.47
64833;HTU21D;51290;45.060;38.948;2022-12-22T14:43:22;8.29;69.46
64833;HTU21D;51290;45.060;38.948;2022-12-22T14:45:50;8.27;69.51
64833;HTU21D;51290;45.060;38.948;2022-12-22T14:48:38;8.22;69.52
64833;HTU21D;51290;45.060;38.948;2022-12-22T14:51:06;8.23;69.62
64833;HTU21D;51290;45.060;38.948;2022-12-22T14:53:42;8.22;69.61
64833;HTU21D;51290;45.060;38.948;2022-12-22T14:56:14;8.21;69.55
64833;HTU21D;51290;45.060;38.948;2022-12-22T14:58:43;8.18;69.55
64833;HTU21D;51290;45.060;38.948;2022-12-22T15:01:20;8.16;69.61
64833;HTU21D;51290;45.060;38.948;2022-12-22T15:04:06;8.16;69.59
64833;HTU21D;51290;45.060;38.948;2022-12-22T15:06:36;8.16;69.65
64833;HTU21D;51290;45.060;38.948;2022-12-22T15:11:32;8.16;69.65
64833;HTU21D;51290;45.060;38.948;2022-12-22T15:14:00;8.17;69.67
64833;HTU21D;51290;45.060;38.948;2022-12-22T15:16:26;8.16;69.61
64833;HTU21D;51290;45.060;38.948;2022-12-22T15:18:52;8.14;69.64
64833;HTU21D;51290;45.060;38.948;2022-12-22T15:21:19;8.13;69.68
64833;HTU21D;51290;45.060;38.948;2022-12-22T15:23:45;8.14;69.73
64833;HTU21D;51290;45.060;38.948;2022-12-22T15:26:11;8.15;69.74
64833;HTU21D;51290;45.060;38.948;2022-12-22T15:28:38;8.15;69.71
64833;HTU21D;51290;45.060;38.948;2022-12-22T15:31:10;8.16;69.78
64833;HTU21D;51290;45.060;38.948;2022-12-22T15:33:37;8.15;69.78
64833;HTU21D;51290;45.060;38.948;2022-12-22T15:36:04;8.15;69.72
64833;HTU21D;51290;45.060;38.948;2022-12-22T15:38:31;8.14;69.71
64833;HTU21D;51290;45.060;38.948;2022-12-22T15:40:57;8.11;69.74
64833;HTU21D;51290;45.060;38.948;2022-12-22T15:43:23;8.08;69.72
64833;HTU21D;51290;45.060;38.948;2022-12-22T15:45:49;8.02;69.71
64833;HTU21D;51290;45.060;38.948;2022-12-22T15:48:24;7.99;69.79
64833;HTU21D;51290;45.060;38.948;2022-12-22T15:50:52;7.97;69.83
64833;HTU21D;51290;45.060;38.948;2022-12-22T15:53:20;7.93;69.87
64833;HTU21D;51290;45.060;38.948;2022-12-22T15:55:50;7.91;69.90
64833;HTU21D;51290;45.060;38.948;2022-12-22T15:58:37;7.91;69.96
64833;HTU21D;51290;45.060;38.948;2022-12-22T16:01:03;7.88;69.94
64833;HTU21D;51290;45.060;38.948;2022-12-22T16:03:29;7.85;69.97
64833;HTU21D;51290;45.060;38.948;2022-12-22T16:05:55;7.84;70.00
64833;HTU21D;51290;45.060;38.948;2022-12-22T16:08:37;7.81;70.07
64833;HTU21D;51290;45.060;38.948;2022-12-22T16:11:06;7.82;70.09
64833;HTU21D;51290;45.060;38.948;2022-12-22T16:13:35;7.79;70.07
64833;HTU21D;51290;45.060;38.948;2022-12-22T16:16:02;7.78;70.09
64833;HTU21D;51290;45.060;38.948;2022-12-22T16:18:28;7.76;70.10
64833;HTU21D;51290;45.060;38.948;2022-12-22T16:20:55;7.73;70.15
64833;HTU21D;51290;45.060;38.948;2022-12-22T16:23:25;7.72;70.14
64833;HTU21D;51290;45.060;38.948;2022-12-22T16:25:53;7.70;70.17
64833;HTU21D;51290;45.060;38.948;2022-12-22T16:28:21;7.68;70.22
64833;HTU21D;51290;45.060;38.948;2022-12-22T16:30:48;7.65;70.19
64833;HTU21D;51290;45.060;38.948;2022-12-22T16:33:14;7.63;70.24
64833;HTU21D;51290;45.060;38.948;2022-12-22T16:35:41;7.60;70.27
64833;HTU21D;51290;45.060;38.948;2022-12-22T16:38:07;7.58;70.28
64833;HTU21D;51290;45.060;38.948;2022-12-22T16:40:41;7.54;70.22
64833;HTU21D;51290;45.060;38.948;2022-12-22T16:45:43;7.45;70.35
64833;HTU21D;51290;45.060;38.948;2022-12-22T16:48:15;7.40;70.37
64833;HTU21D;51290;45.060;38.948;2022-12-22T16:50:44;7.37;70.45
64833;HTU21D;51290;45.060;38.948;2022-12-22T16:53:11;7.33;70.48
64833;HTU21D;51290;45.060;38.948;2022-12-22T16:55:40;7.31;70.50
64833;HTU21D;51290;45.060;38.948;2022-12-22T16:58:07;7.27;70.53
64833;HTU21D;51290;45.060;38.948;2022-12-22T17:00:34;7.24;70.51
64833;HTU21D;51290;45.060;38.948;2022-12-22T17:03:04;7.20;70.60
64833;HTU21D;51290;45.060;38.948;2022-12-22T17:05:35;7.18;70.61
64833;HTU21D;51290;45.060;38.948;2022-12-22T17:08:04;7.17;70.58
64833;HTU21D;51290;45.060;38.948;2022-12-22T17:10:31;7.17;70.71
64833;HTU21D;51290;45.060;38.948;2022-12-22T17:12:58;7.15;70.68
64833;HTU21D;51290;45.060;38.948;2022-12-22T17:15:24;7.13;70.74
64833;HTU21D;51290;45.060;38.948;2022-12-22T17:17:51;7.14;70.72
64833;HTU21D;51290;45.060;38.948;2022-12-22T17:20:22;7.12;70.76
64833;HTU21D;51290;45.060;38.948;2022-12-22T17:22:54;7.11;70.86
64833;HTU21D;51290;45.060;38.948;2022-12-22T17:25:28;7.14;70.90
64833;HTU21D;51290;45.060;38.948;2022-12-22T17:27:55;7.14;70.83
64833;HTU21D;51290;45.060;38.948;2022-12-22T17:30:23;7.12;70.79
64833;HTU21D;51290;45.060;38.948;2022-12-22T17:32:50;7.09;70.83
64833;HTU21D;51290;45.060;38.948;2022-12-22T17:35:22;7.08;70.94